Terminal Aerodrome Forecast
Issued by NWS Central Illinois

Home | Current Version | Previous Version | Text Only | Print | Product List | Glossary On
Versions: 1 2 3 4 5 6 7 8 9 10 11 12 13 14 15 16 17 18 19 20 21 22 23 24 25 26 27 28 29 30 31 32 33
000
FTUS43 KILX 271734
TAFPIA
TAF
KPIA 271734Z 2718/2818 21009KT P6SM BKN015
     FM271900 21009KT P6SM BKN025
     FM272100 21008KT P6SM VCTS SCT025CB BKN120
     FM280200 19005KT P6SM BKN250
     FM280900 VRB03KT 2SM BR BKN250
     FM281400 14005KT P6SM SCT025 BKN250=

USA.gov is the U.S. government's official web portal to all federal, state and local government web resources and services.